createdAt,value
2022-10-31T00:01:31.000Z,3.20
2022-10-31T00:03:57.667Z,3.03
2022-10-31T00:06:24.917Z,2.80
2022-10-31T00:08:57.391Z,3.17
2022-10-31T00:11:24.616Z,3.53
2022-10-31T00:13:51.434Z,3.20
2022-10-31T00:16:20.516Z,3.60
2022-10-31T00:18:54.400Z,2.65
2022-10-31T00:21:21.565Z,2.58
2022-10-31T00:23:48.655Z,2.65
2022-10-31T00:26:15.762Z,2.45
2022-10-31T00:28:42.715Z,2.63
2022-10-31T00:31:11.951Z,2.33
2022-10-31T00:33:40.075Z,3.75
2022-10-31T00:36:08.585Z,2.20
2022-10-31T00:38:35.164Z,2.78
2022-10-31T00:41:01.838Z,3.58
2022-10-31T00:43:28.446Z,2.88
2022-10-31T00:45:55.164Z,3.42
2022-10-31T00:48:24.785Z,2.85
2022-10-31T00:50:53.023Z,2.72
2022-10-31T00:53:19.593Z,3.15
2022-10-31T00:55:46.438Z,2.50
2022-10-31T01:00:48.045Z,3.15
2022-10-31T01:03:17.627Z,2.10
2022-10-31T01:05:44.205Z,2.20
2022-10-31T01:08:10.829Z,4.57
2022-10-31T01:10:37.455Z,2.30
2022-10-31T01:13:04.091Z,2.75
2022-10-31T01:15:30.680Z,2.47
2022-10-31T01:17:57.750Z,2.25
2022-10-31T01:20:24.881Z,2.40
2022-10-31T01:22:51.491Z,2.60
2022-10-31T01:25:18.204Z,2.42
2022-10-31T01:27:44.839Z,2.70
2022-10-31T01:30:11.842Z,2.58
2022-10-31T01:32:38.575Z,2.60
2022-10-31T01:35:05.265Z,3.58
2022-10-31T01:37:32.313Z,2.25
2022-10-31T01:39:59.214Z,2.75
2022-10-31T01:42:25.941Z,1.92
2022-10-31T01:44:54.567Z,2.55
2022-10-31T01:47:50.554Z,2.20
2022-10-31T01:50:26.821Z,3.03
2022-10-31T01:52:54.281Z,2.53
2022-10-31T01:55:31.599Z,2.20
2022-10-31T01:58:08.331Z,3.17
2022-10-31T02:00:35.221Z,2.38
2022-10-31T02:03:02.502Z,1.98
2022-10-31T02:05:31.270Z,2.22
2022-10-31T02:08:04.778Z,2.78
2022-10-31T02:10:33.696Z,2.80
2022-10-31T02:13:04.359Z,2.63
2022-10-31T02:15:31.607Z,3.67
2022-10-31T02:17:59.083Z,2.40
2022-10-31T02:20:33.427Z,2.40
2022-10-31T02:23:18.263Z,2.08
2022-10-31T02:26:08.438Z,3.80
2022-10-31T02:29:01.995Z,2.65
2022-10-31T02:31:34.715Z,2.55
2022-10-31T02:34:29.413Z,2.33
2022-10-31T02:37:08.545Z,2.22
2022-10-31T02:39:47.939Z,2.38
2022-10-31T02:42:30.937Z,2.50
2022-10-31T02:45:21.437Z,2.47
2022-10-31T02:47:51.251Z,2.33
2022-10-31T02:50:28.306Z,2.60
2022-10-31T02:52:54.976Z,2.63
2022-10-31T02:55:23.741Z,2.40
2022-10-31T02:57:54.438Z,2.47
2022-10-31T03:00:22.994Z,2.28
2022-10-31T03:02:55.650Z,2.08
2022-10-31T03:05:30.062Z,2.05
2022-10-31T03:08:25.739Z,2.75
2022-10-31T03:10:52.682Z,1.85
2022-10-31T03:13:41.116Z,2.00
2022-10-31T03:16:30.136Z,2.40
2022-10-31T03:18:56.799Z,1.70
2022-10-31T03:21:30.347Z,2.70
2022-10-31T03:24:00.834Z,2.17
2022-10-31T03:26:27.698Z,2.30
2022-10-31T03:28:58.203Z,2.30
2022-10-31T03:31:31.039Z,2.00
2022-10-31T03:34:00.826Z,2.63
2022-10-31T03:36:32.667Z,2.13
2022-10-31T03:39:02.804Z,2.58
2022-10-31T03:41:36.290Z,2.30
2022-10-31T03:44:08.760Z,2.70
2022-10-31T03:46:38.087Z,2.33
2022-10-31T03:49:05.434Z,2.08
2022-10-31T03:51:48.055Z,1.88
2022-10-31T03:54:41.478Z,2.20
2022-10-31T03:57:19.733Z,2.42
2022-10-31T03:59:52.340Z,1.90
2022-10-31T04:02:23.896Z,2.30
2022-10-31T04:04:52.362Z,2.13
2022-10-31T04:07:21.757Z,2.15
2022-10-31T04:09:53.179Z,2.00
2022-10-31T04:12:23.395Z,2.13
2022-10-31T04:15:27.187Z,2.30
2022-10-31T04:17:59.353Z,2.33
2022-10-31T04:20:35.444Z,2.38
2022-10-31T04:23:02.592Z,2.28
2022-10-31T04:25:29.207Z,2.42
2022-10-31T04:27:56.198Z,2.38
2022-10-31T04:30:23.842Z,2.10
2022-10-31T04:32:50.485Z,1.98
2022-10-31T04:35:18.271Z,2.00
2022-10-31T04:37:46.303Z,2.50
2022-10-31T04:40:13.878Z,2.20
2022-10-31T04:43:12.743Z,3.22
2022-10-31T04:45:40.040Z,2.28
2022-10-31T04:48:06.863Z,2.67
2022-10-31T04:50:35.382Z,2.42
2022-10-31T04:53:02.106Z,2.47
2022-10-31T04:55:36.455Z,2.78
2022-10-31T04:58:18.035Z,2.00
2022-10-31T05:00:44.917Z,2.83
2022-10-31T05:03:12.360Z,2.72
2022-10-31T05:05:40.816Z,2.50
2022-10-31T05:08:07.486Z,2.58
2022-10-31T05:10:34.115Z,2.20
2022-10-31T05:13:03.911Z,2.20
2022-10-31T05:15:50.531Z,2.22
2022-10-31T05:18:35.763Z,2.08
2022-10-31T05:21:21.179Z,1.67
2022-10-31T05:23:51.890Z,2.53
2022-10-31T05:26:19.867Z,2.38
2022-10-31T05:28:47.744Z,2.75
2022-10-31T05:31:14.455Z,3.03
2022-10-31T05:33:42.314Z,2.30
2022-10-31T05:36:29.173Z,2.15
2022-10-31T05:39:00.850Z,2.35
2022-10-31T05:41:42.075Z,2.20
2022-10-31T05:44:34.752Z,2.42
2022-10-31T05:47:33.768Z,2.20
2022-10-31T05:50:00.393Z,2.00
2022-10-31T05:52:42.056Z,1.65
2022-10-31T05:55:32.357Z,1.95
2022-10-31T05:58:10.822Z,2.20
2022-10-31T06:00:39.564Z,1.88
2022-10-31T06:03:10.510Z,2.25
2022-10-31T06:05:50.827Z,2.33
2022-10-31T06:08:22.214Z,2.17
2022-10-31T06:10:49.840Z,2.67
2022-10-31T06:13:22.658Z,2.60
2022-10-31T06:16:03.478Z,2.67
2022-10-31T06:18:38.789Z,2.88
2022-10-31T06:21:05.649Z,2.85
2022-10-31T06:23:32.227Z,2.08
2022-10-31T06:26:18.923Z,2.67
2022-10-31T06:28:45.608Z,2.33
2022-10-31T06:31:32.493Z,2.67
2022-10-31T06:33:59.272Z,2.22
2022-10-31T06:38:58.432Z,2.15
2022-10-31T06:41:25.129Z,2.58
2022-10-31T06:43:53.276Z,2.83
2022-10-31T06:46:40.128Z,2.50
2022-10-31T06:49:29.902Z,2.13
2022-10-31T06:52:00.799Z,2.15
2022-10-31T06:54:27.486Z,2.50
2022-10-31T06:56:54.785Z,2.33
2022-10-31T06:59:22.067Z,3.08
2022-10-31T07:02:11.551Z,2.65
2022-10-31T07:04:40.024Z,2.03
2022-10-31T07:07:07.532Z,2.53
2022-10-31T07:09:35.767Z,3.13
2022-10-31T07:12:04.591Z,2.53
2022-10-31T07:14:34.819Z,2.40
2022-10-31T07:17:02.229Z,2.45
2022-10-31T07:19:35.038Z,3.40
2022-10-31T07:22:02.506Z,2.90
2022-10-31T07:24:31.350Z,3.42
2022-10-31T07:27:42.716Z,2.95
2022-10-31T07:30:14.205Z,2.85
2022-10-31T07:32:49.075Z,2.60
2022-10-31T07:35:20.604Z,3.25
2022-10-31T07:37:50.661Z,3.70
2022-10-31T07:40:18.302Z,2.95
2022-10-31T07:42:47.352Z,3.65
2022-10-31T07:45:33.963Z,3.25
2022-10-31T07:48:32.882Z,3.40
2022-10-31T07:51:17.808Z,2.92
2022-10-31T07:54:03.111Z,2.72
2022-10-31T07:56:32.042Z,2.38
2022-10-31T07:58:58.844Z,2.80
2022-10-31T08:01:25.485Z,3.80
2022-10-31T08:04:24.436Z,3.10
2022-10-31T08:07:11.397Z,2.90
2022-10-31T08:09:42.811Z,3.88
2022-10-31T08:12:18.936Z,3.20
2022-10-31T08:14:45.582Z,3.63
2022-10-31T08:17:12.887Z,3.63
2022-10-31T08:19:46.669Z,2.72
2022-10-31T08:22:16.183Z,2.78
2022-10-31T08:24:42.754Z,4.15
2022-10-31T08:27:09.583Z,4.05
2022-10-31T08:29:37.976Z,3.22
2022-10-31T08:32:05.153Z,3.03
2022-10-31T08:34:50.198Z,3.30
2022-10-31T08:37:35.493Z,3.58
2022-10-31T08:40:04.221Z,2.88
2022-10-31T08:42:34.361Z,3.42
2022-10-31T08:45:01.273Z,3.03
2022-10-31T08:47:28.835Z,3.65
2022-10-31T08:49:56.550Z,3.25
2022-10-31T08:52:44.296Z,3.17
2022-10-31T08:55:12.420Z,3.55
2022-10-31T08:58:02.963Z,3.60
2022-10-31T09:00:39.107Z,3.30
2022-10-31T09:03:19.748Z,2.35
2022-10-31T09:05:46.862Z,3.45
2022-10-31T09:08:16.580Z,2.60
2022-10-31T09:10:46.319Z,2.97
2022-10-31T09:13:21.534Z,2.78
2022-10-31T09:16:07.069Z,2.90
2022-10-31T09:18:35.207Z,2.50
2022-10-31T09:21:02.148Z,2.10
2022-10-31T09:23:31.006Z,2.65
2022-10-31T09:26:01.381Z,3.25
2022-10-31T09:28:32.623Z,2.20
2022-10-31T09:31:05.672Z,2.07
2022-10-31T09:34:01.587Z,3.60
2022-10-31T09:36:40.537Z,2.97
2022-10-31T09:39:11.570Z,2.40
2022-10-31T09:41:56.255Z,2.85
2022-10-31T09:48:04.900Z,2.75
2022-10-31T09:50:49.818Z,2.80
2022-10-31T09:53:55.067Z,2.75
2022-10-31T09:56:26.387Z,2.65
2022-10-31T09:59:01.825Z,3.00
2022-10-31T10:01:52.262Z,2.80
2022-10-31T10:04:38.454Z,2.53
2022-10-31T10:07:29.114Z,3.08
2022-10-31T10:10:27.222Z,3.30
2022-10-31T10:13:30.265Z,2.28
2022-10-31T10:16:15.393Z,2.40
2022-10-31T10:18:51.829Z,2.40
2022-10-31T10:21:24.775Z,2.15
2022-10-31T10:24:00.556Z,2.88
2022-10-31T10:26:36.076Z,2.50
2022-10-31T10:31:41.208Z,3.28
2022-10-31T10:34:30.983Z,2.42
2022-10-31T10:37:04.053Z,2.08
2022-10-31T10:39:38.159Z,1.90
2022-10-31T10:42:34.419Z,2.70
2022-10-31T10:45:29.287Z,2.38
2022-10-31T10:48:09.822Z,2.83
2022-10-31T10:50:43.093Z,2.53
2022-10-31T10:53:32.909Z,2.72
2022-10-31T10:56:16.816Z,2.78
2022-10-31T10:58:44.050Z,2.17
2022-10-31T11:03:43.106Z,2.95
2022-10-31T11:06:25.805Z,2.85
2022-10-31T11:08:53.426Z,3.08
2022-10-31T11:11:31.770Z,2.78
2022-10-31T11:14:04.508Z,2.70
2022-10-31T11:16:40.690Z,2.33
2022-10-31T11:19:20.148Z,2.50
2022-10-31T11:21:52.796Z,2.47
2022-10-31T11:24:28.919Z,2.40
2022-10-31T11:27:17.996Z,2.25
2022-10-31T11:29:44.789Z,3.17
2022-10-31T11:32:20.709Z,2.42
2022-10-31T11:34:51.492Z,3.03
2022-10-31T11:37:22.318Z,2.25
2022-10-31T11:39:58.263Z,2.88
2022-10-31T11:42:31.376Z,2.80
2022-10-31T11:44:58.167Z,2.53
2022-10-31T11:47:31.072Z,2.80
2022-10-31T11:49:58.803Z,3.60
2022-10-31T11:52:31.612Z,2.50
2022-10-31T11:55:13.254Z,2.28
2022-10-31T11:57:48.893Z,2.25
2022-10-31T12:00:38.257Z,2.25
2022-10-31T12:03:34.283Z,2.85
2022-10-31T12:06:06.050Z,2.58
2022-10-31T12:08:36.254Z,2.70
2022-10-31T12:11:12.651Z,2.17
2022-10-31T12:14:04.332Z,2.75
2022-10-31T12:17:11.660Z,2.25
2022-10-31T12:20:00.305Z,2.60
2022-10-31T12:22:57.192Z,2.47
2022-10-31T12:25:30.062Z,2.45
2022-10-31T12:28:18.374Z,2.40
2022-10-31T12:31:10.777Z,2.08
2022-10-31T12:33:51.409Z,2.10
2022-10-31T12:36:32.972Z,2.58
2022-10-31T12:39:14.754Z,2.97
2022-10-31T12:41:59.845Z,3.08
2022-10-31T12:44:29.677Z,2.63
2022-10-31T12:47:33.451Z,3.28
2022-10-31T12:50:41.568Z,3.92
2022-10-31T12:53:25.305Z,3.13
2022-10-31T12:56:25.708Z,2.83
2022-10-31T12:59:01.120Z,2.67
2022-10-31T13:01:34.832Z,2.67
2022-10-31T13:04:09.645Z,2.58
2022-10-31T13:06:44.862Z,4.07
2022-10-31T13:12:16.548Z,2.63
2022-10-31T13:14:48.766Z,2.55
2022-10-31T13:17:24.955Z,2.83
2022-10-31T13:19:56.412Z,2.22
2022-10-31T13:22:28.905Z,2.80
2022-10-31T13:25:14.696Z,3.13
2022-10-31T13:30:39.600Z,2.55
2022-10-31T13:33:36.514Z,2.60
2022-10-31T13:36:30.844Z,2.38
2022-10-31T13:39:07.244Z,2.83
2022-10-31T13:41:50.878Z,2.97
2022-10-31T13:44:31.340Z,2.78
2022-10-31T13:47:01.172Z,2.85
2022-10-31T13:49:30.717Z,2.90
2022-10-31T13:52:12.408Z,3.08
2022-10-31T13:54:44.207Z,3.17
2022-10-31T13:57:20.557Z,2.60
2022-10-31T13:59:54.716Z,2.67
2022-10-31T14:02:34.360Z,2.80
2022-10-31T14:05:05.037Z,3.10
2022-10-31T14:07:33.393Z,3.60
2022-10-31T14:10:20.288Z,4.32
2022-10-31T14:12:49.119Z,3.50
2022-10-31T14:15:17.773Z,2.83
2022-10-31T14:17:55.859Z,2.97
2022-10-31T14:20:45.013Z,3.60
2022-10-31T14:23:36.558Z,2.58
2022-10-31T14:26:26.614Z,7.05
2022-10-31T14:28:57.647Z,2.47
2022-10-31T14:31:38.901Z,2.08
2022-10-31T14:34:33.416Z,2.47
2022-10-31T14:37:08.949Z,2.47
2022-10-31T14:39:58.665Z,2.80
2022-10-31T14:43:02.928Z,2.85
2022-10-31T14:45:32.960Z,5.43
2022-10-31T14:48:34.075Z,3.25
2022-10-31T14:51:30.544Z,3.53
2022-10-31T14:53:58.465Z,3.10
2022-10-31T14:56:30.602Z,2.90
2022-10-31T14:59:01.016Z,3.00
2022-10-31T15:01:31.530Z,3.05
2022-10-31T15:04:24.899Z,3.72
2022-10-31T15:07:24.832Z,3.10
2022-10-31T15:09:58.495Z,2.55
2022-10-31T15:12:31.308Z,3.33
2022-10-31T15:14:59.686Z,3.38
2022-10-31T15:17:27.685Z,3.25
2022-10-31T15:19:54.949Z,3.03
2022-10-31T15:22:25.033Z,3.40
2022-10-31T15:24:57.428Z,2.85
2022-10-31T15:27:25.671Z,4.68
2022-10-31T15:29:54.842Z,3.95
2022-10-31T15:32:26.704Z,3.50
2022-10-31T15:34:54.876Z,3.47
2022-10-31T15:37:25.776Z,2.75
2022-10-31T15:39:52.703Z,4.82
2022-10-31T15:42:21.116Z,5.03
2022-10-31T15:44:57.806Z,4.18
2022-10-31T15:47:25.446Z,3.60
2022-10-31T15:49:57.670Z,3.55
2022-10-31T15:52:48.179Z,4.60
2022-10-31T15:55:16.745Z,3.60
2022-10-31T15:57:48.432Z,4.25
2022-10-31T16:00:38.411Z,3.33
2022-10-31T16:03:20.166Z,3.00
2022-10-31T16:05:48.018Z,5.05
2022-10-31T16:08:29.842Z,5.22
2022-10-31T16:11:01.628Z,4.20
2022-10-31T16:13:31.809Z,3.80
2022-10-31T16:16:32.970Z,3.90
2022-10-31T16:18:54.190Z,3.97
2022-10-31T16:21:30.906Z,4.50
2022-10-31T16:24:28.923Z,3.22
2022-10-31T16:27:03.969Z,3.25
2022-10-31T16:29:48.019Z,3.25
2022-10-31T16:32:37.623Z,3.08
2022-10-31T16:35:10.312Z,3.58
2022-10-31T16:37:41.197Z,4.88
2022-10-31T16:40:11.288Z,4.13
2022-10-31T16:42:37.977Z,3.13
2022-10-31T16:45:06.864Z,4.20
2022-10-31T16:47:33.500Z,4.60
2022-10-31T16:50:02.996Z,4.63
2022-10-31T16:52:38.245Z,3.75
2022-10-31T16:55:15.973Z,3.83
2022-10-31T16:57:46.383Z,3.60
2022-10-31T17:00:19.625Z,4.55
2022-10-31T17:02:48.200Z,3.22
2022-10-31T17:05:16.857Z,3.78
2022-10-31T17:07:43.744Z,3.45
2022-10-31T17:10:12.163Z,3.65
2022-10-31T17:12:41.595Z,3.95
2022-10-31T17:15:16.791Z,3.15
2022-10-31T17:17:43.472Z,3.05
2022-10-31T17:20:26.019Z,4.75
2022-10-31T17:22:53.502Z,5.72
2022-10-31T17:25:23.151Z,5.30
2022-10-31T17:27:50.532Z,6.45
2022-10-31T17:30:18.770Z,7.32
2022-10-31T17:32:46.924Z,7.28
2022-10-31T17:35:14.952Z,5.55
2022-10-31T17:37:44.694Z,4.93
2022-10-31T17:40:13.567Z,6.07
2022-10-31T17:42:40.188Z,4.75
2022-10-31T17:45:08.027Z,5.45
2022-10-31T17:47:35.503Z,4.53
2022-10-31T17:50:02.251Z,6.07
2022-10-31T17:52:28.771Z,6.05
2022-10-31T17:54:55.381Z,4.82
2022-10-31T17:57:22.020Z,5.13
2022-10-31T17:59:48.647Z,5.22
2022-10-31T18:02:15.373Z,3.95
2022-10-31T18:04:42.235Z,4.32
2022-10-31T18:07:08.773Z,4.05
2022-10-31T18:09:35.713Z,4.65
2022-10-31T18:12:02.351Z,3.00
2022-10-31T18:14:29.540Z,3.33
2022-10-31T18:16:56.114Z,4.00
2022-10-31T18:19:22.868Z,3.45
2022-10-31T18:21:49.395Z,4.25
2022-10-31T18:24:16.008Z,3.80
2022-10-31T18:26:42.921Z,3.90
2022-10-31T18:29:11.589Z,3.80
2022-10-31T18:31:38.289Z,4.50
2022-10-31T18:34:05.024Z,5.93
2022-10-31T18:36:31.755Z,5.72
2022-10-31T18:38:58.479Z,6.20
2022-10-31T18:41:25.447Z,6.65
2022-10-31T18:43:56.044Z,6.82
2022-10-31T18:46:22.672Z,3.55
2022-10-31T18:48:49.292Z,3.97
2022-10-31T18:51:18.283Z,5.55
2022-10-31T18:53:52.619Z,3.63
2022-10-31T18:56:19.937Z,4.10
2022-10-31T18:58:46.914Z,4.13
2022-10-31T19:01:14.764Z,4.05
2022-10-31T19:03:41.637Z,4.05
2022-10-31T19:06:12.436Z,4.35
2022-10-31T19:08:39.726Z,4.22
2022-10-31T19:11:09.231Z,3.85
2022-10-31T19:13:36.512Z,3.90
2022-10-31T19:16:05.318Z,4.38
2022-10-31T19:18:31.914Z,3.92
2022-10-31T19:20:58.549Z,3.92
2022-10-31T19:23:25.204Z,4.57
2022-10-31T19:25:51.738Z,4.47
2022-10-31T19:28:18.364Z,4.43
2022-10-31T19:30:52.863Z,3.92
2022-10-31T19:33:19.467Z,4.88
2022-10-31T19:35:46.188Z,4.28
2022-10-31T19:38:12.866Z,4.50
2022-10-31T19:40:39.465Z,4.43
2022-10-31T19:43:06.333Z,4.68
2022-10-31T19:45:32.898Z,4.70
2022-10-31T19:47:59.998Z,4.38
2022-10-31T19:50:28.931Z,4.68
2022-10-31T19:52:55.550Z,5.25
2022-10-31T19:55:22.244Z,5.75
2022-10-31T19:58:01.319Z,5.05
2022-10-31T20:00:28.892Z,4.28
2022-10-31T20:02:55.481Z,4.18
2022-10-31T20:05:22.153Z,4.13
2022-10-31T20:07:48.740Z,4.00
2022-10-31T20:10:15.363Z,4.30
2022-10-31T20:12:41.968Z,4.35
2022-10-31T20:15:09.369Z,4.25
2022-10-31T20:17:35.947Z,3.63
2022-10-31T20:20:08.552Z,4.65
2022-10-31T20:22:36.498Z,4.38
2022-10-31T20:25:03.541Z,5.00
2022-10-31T20:27:30.271Z,3.75
2022-10-31T20:29:56.902Z,3.60
2022-10-31T20:32:23.738Z,5.03
2022-10-31T20:34:50.328Z,4.20
2022-10-31T20:37:17.072Z,4.18
2022-10-31T20:39:43.637Z,3.90
2022-10-31T20:42:10.337Z,3.63
2022-10-31T20:44:36.940Z,4.20
2022-10-31T20:47:04.204Z,3.35
2022-10-31T20:49:30.806Z,4.53
2022-10-31T20:51:57.544Z,3.67
2022-10-31T20:54:24.145Z,4.57
2022-10-31T20:56:50.776Z,4.38
2022-10-31T20:59:19.368Z,5.03
2022-10-31T21:01:46.226Z,4.60
2022-10-31T21:04:12.905Z,3.60
2022-10-31T21:06:40.056Z,3.60
2022-10-31T21:09:07.044Z,4.40
2022-10-31T21:11:33.770Z,3.75
2022-10-31T21:14:00.655Z,3.95
2022-10-31T21:16:35.649Z,4.30
2022-10-31T21:19:04.292Z,4.15
2022-10-31T21:21:35.063Z,3.58
2022-10-31T21:24:04.885Z,4.75
2022-10-31T21:26:34.928Z,5.32
2022-10-31T21:29:03.163Z,3.45
2022-10-31T21:31:29.975Z,4.35
2022-10-31T21:33:56.856Z,4.63
2022-10-31T21:36:24.073Z,3.83
2022-10-31T21:38:51.893Z,3.85
2022-10-31T21:41:19.437Z,4.00
2022-10-31T21:43:48.615Z,4.63
2022-10-31T21:46:18.406Z,3.97
2022-10-31T21:48:46.455Z,3.70
2022-10-31T21:51:16.522Z,3.78
2022-10-31T21:54:02.025Z,3.35
2022-10-31T21:56:29.400Z,4.38
2022-10-31T21:58:56.276Z,5.13
2022-10-31T22:01:24.739Z,3.60
2022-10-31T22:03:51.492Z,3.50
2022-10-31T22:06:18.275Z,4.05
2022-10-31T22:08:44.974Z,3.58
2022-10-31T22:11:14.287Z,4.05
2022-10-31T22:13:42.958Z,5.10
2022-10-31T22:16:12.095Z,4.10
2022-10-31T22:18:39.813Z,4.25
2022-10-31T22:21:08.434Z,4.55
2022-10-31T22:23:35.734Z,3.67
2022-10-31T22:26:07.120Z,3.95
2022-10-31T22:28:34.394Z,5.40
2022-10-31T22:31:05.457Z,4.00
2022-10-31T22:33:32.522Z,4.55
2022-10-31T22:36:03.884Z,4.13
2022-10-31T22:38:31.156Z,5.10
2022-10-31T22:40:58.790Z,4.40
2022-10-31T22:43:25.520Z,5.30
2022-10-31T22:45:56.120Z,4.72
2022-10-31T22:48:22.772Z,5.10
2022-10-31T22:50:49.323Z,4.25
2022-10-31T22:53:16.047Z,4.80
2022-10-31T22:55:42.631Z,3.75
2022-10-31T22:58:09.214Z,3.90
2022-10-31T23:00:35.917Z,4.57
2022-10-31T23:03:02.595Z,4.63
2022-10-31T23:05:29.126Z,4.20
2022-10-31T23:07:55.734Z,3.67
2022-10-31T23:10:22.486Z,3.95
2022-10-31T23:13:07.750Z,4.28
2022-10-31T23:15:37.727Z,3.92
2022-10-31T23:18:06.370Z,3.47
2022-10-31T23:20:38.352Z,3.80
2022-10-31T23:23:05.016Z,3.90
2022-10-31T23:25:50.244Z,3.30
2022-10-31T23:28:16.944Z,4.63
2022-10-31T23:30:46.332Z,3.55
2022-10-31T23:33:12.946Z,4.03
2022-10-31T23:35:39.475Z,4.28
2022-10-31T23:38:06.084Z,3.33
2022-10-31T23:40:32.822Z,3.75
2022-10-31T23:42:59.438Z,4.30
2022-10-31T23:45:28.457Z,4.28
2022-10-31T23:47:55.133Z,4.35
2022-10-31T23:50:21.708Z,3.95
2022-10-31T23:52:48.369Z,4.30
2022-10-31T23:55:15.131Z,3.67
2022-10-31T23:57:41.958Z,3.78
